Terminal Aerodrome Forecast
Issued by NWS Cleveland, OH

Home | Current Version | Previous Version | Graphics & Text | Print | Product List | Glossary Off
Versions: 1 2 3 4 5 6 7 8 9 10 11 12 13 14 15 16 17 18 19 20 21 22 23

000
FTUS41 KCLE 020800 AAA
TAFCAK
TAF AMD
KCAK 020807Z 0208/0306 22008KT P6SM SCT025
      TEMPO 0208/0211 BKN025
     FM021100 23010KT P6SM BKN025
     FM021300 24009KT 4SM -SHRA BR VCTS SCT015CB BKN025
      TEMPO 0213/0217 2SM -SHRA BR BKN015
     FM021700 24011KT P6SM VCSH BKN015
     FM022100 24010KT P6SM BKN035
     FM030000 24008KT P6SM SCT045 BKN250
     FM030300 21005KT P6SM SCT050 BKN250=

USA.gov is the U.S. government's official web portal to all federal, state and local government web resources and services.